Time;durP1;ratioP1;P1;durP2;ratioP2;P2;SDS_P1;SDS_P2;PMS_P1;PMS_P2;Temp;Humidity;BMP_temperature;BMP_pressure;BME280_temperature;BME280_humidity;BME280_pressure;Samples;Min_cycle;Max_cycle;Signal;HPM_P1;HPM_P2
2023/04/23 14:11:04;;;;;;;;;0.00;0.00;;;;;13.61;66.04;99926.25;6224210;22;46446;-74
2023/04/23 14:13:31;;;;;;;;;0.00;0.00;;;;;13.45;65.96;99905.94;6247569;22;45312;-73
2023/04/23 14:15:57;;;;;;;;;0.00;0.00;;;;;13.64;65.10;99920.97;6245459;22;45278;-74
2023/04/23 14:18:23;;;;;;;;;0.00;0.00;;;;;13.61;64.40;99920.94;6247865;22;45177;-73
2023/04/23 14:20:48;;;;;;;;;0.00;0.00;;;;;13.66;63.91;99921.81;6244665;22;45788;-73
2023/04/23 14:23:22;;;;;;;;;0.00;0.00;;;;;13.76;63.65;99950.13;6245704;22;45611;-73
2023/04/23 14:25:56;;;;;;;;;0.00;0.00;;;;;13.83;63.50;99938.59;6246293;22;45164;-73
2023/04/23 14:28:38;;;;;;;;;0.00;0.00;;;;;13.97;63.33;99942.97;6247548;22;45224;-73
2023/04/23 14:31:04;;;;;;;;;0.00;0.00;;;;;14.04;62.86;99926.13;6244096;22;46678;-74
2023/04/23 14:33:29;;;;;;;;;0.00;0.00;;;;;14.33;62.95;99942.81;6244654;22;46930;-74
2023/04/23 14:35:55;;;;;;;;;0.00;0.00;;;;;14.35;61.49;99921.56;6246128;22;45254;-73
2023/04/23 14:38:21;;;;;;;;;0.00;0.00;;;;;14.63;62.05;99948.91;6246821;22;45176;-74
2023/04/23 14:40:47;;;;;;;;;0.00;0.00;;;;;14.38;61.56;99902.06;6245949;22;45251;-74
2023/04/23 14:43:12;;;;;;;;;0.00;0.00;;;;;14.76;61.25;99957.72;6245046;22;47006;-74
2023/04/23 14:45:38;;;;;;;;;0.00;0.00;;;;;14.84;60.60;99942.56;6245239;22;45222;-73
2023/04/23 14:48:03;;;;;;;;;0.00;0.00;;;;;14.95;60.48;99938.03;6246736;22;45255;-75
2023/04/23 14:50:28;;;;;;;;;1.33;0.00;;;;;15.09;59.92;99937.94;6246516;22;45145;-75
2023/04/23 14:52:54;;;;;;;;;0.67;0.00;;;;;15.37;59.75;99927.94;6245544;22;46305;-75
2023/04/23 14:55:20;;;;;;;;;0.00;0.00;;;;;15.61;59.59;99924.16;6243960;22;45252;-75
2023/04/23 14:57:46;;;;;;;;;0.00;0.00;;;;;15.82;58.71;99924.84;6243388;22;45277;-75
2023/04/23 15:00:12;;;;;;;;;0.00;0.00;;;;;15.96;58.09;99922.03;6245398;22;45271;-75
2023/04/23 15:02:41;;;;;;;;;0.00;0.00;;;;;16.24;58.01;99943.91;6243806;22;45547;-75
2023/04/23 15:05:08;;;;;;;;;0.67;0.00;;;;;16.49;57.61;99940.00;6246290;22;44874;-75
2023/04/23 15:07:34;;;;;;;;;0.00;0.00;;;;;16.66;57.23;99937.09;6246735;22;45170;-75
2023/04/23 15:10:05;;;;;;;;;0.00;0.00;;;;;16.60;56.63;99907.84;6243829;22;46015;-74
2023/04/23 15:13:01;;;;;;;;;0.00;0.00;;;;;16.81;57.87;99935.19;6242169;22;46965;-75
2023/04/23 15:15:36;;;;;;;;;0.00;0.00;;;;;16.87;57.22;99921.72;6245964;22;45290;-75
2023/04/23 15:18:01;;;;;;;;;2.00;2.00;;;;;17.00;56.64;99924.19;6245784;22;45220;-75
2023/04/23 15:20:27;;;;;;;;;4.67;2.33;;;;;16.96;56.54;99898.44;6245355;22;45453;-75
2023/04/23 15:22:52;;;;;;;;;0.00;0.00;;;;;17.12;55.82;99900.88;6246107;22;45273;-75
2023/04/23 15:25:18;;;;;;;;;9.33;8.00;;;;;-145.45;100.00;57426.63;6243390;22;45178;-74
2023/04/23 15:27:44;;;;;;;;;1.00;1.00;;;;;-145.45;100.00;57426.63;6245725;22;45226;-74
2023/04/23 15:30:10;;;;;;;;;0.00;0.00;;;;;-145.45;100.00;57426.63;6245998;22;45394;-73
2023/04/23 15:32:35;;;;;;;;;1.00;0.00;;;;;-145.45;100.00;57426.63;6245374;22;45210;-73
2023/04/23 15:35:00;;;;;;;;;0.00;0.00;;;;;-145.45;100.00;57426.63;6246189;22;45058;-72
2023/04/23 15:37:26;;;;;;;;;0.00;0.00;;;;;-145.45;100.00;57426.63;6245376;22;45189;-72
2023/04/23 15:39:55;;;;;;;;;0.00;0.00;;;;;-145.45;100.00;57426.63;6245472;22;45482;-72
2023/04/23 15:42:23;;;;;;;;;1.00;0.00;;;;;-145.45;100.00;57426.63;6245594;22;46213;-72
2023/04/23 15:44:49;;;;;;;;;0.00;0.00;;;;;-145.45;100.00;57426.63;6243004;22;45206;-72
2023/04/23 15:47:15;;;;;;;;;0.00;0.00;;;;;-145.45;100.00;57426.63;6243187;22;45281;-72
2023/04/23 15:49:40;;;;;;;;;0.00;0.00;;;;;-145.45;100.00;57426.63;6245799;22;45202;-72
2023/04/23 15:52:05;;;;;;;;;0.00;0.00;;;;;-145.45;100.00;57426.63;6246346;22;45362;-72
2023/04/23 15:54:31;;;;;;;;;0.00;0.00;;;;;-145.45;100.00;57426.63;6246368;22;45267;-72
2023/04/23 15:56:56;;;;;;;;;0.33;0.33;;;;;-145.45;100.00;57426.63;6245253;22;45273;-72
2023/04/23 15:59:22;;;;;;;;;1.00;0.00;;;;;-145.45;100.00;57426.63;6243590;22;45617;-71
2023/04/23 16:01:47;;;;;;;;;2.00;2.00;;;;;-145.45;100.00;57426.63;6244780;22;45362;-73
2023/04/23 16:04:12;;;;;;;;;0.00;0.00;;;;;-145.45;100.00;57426.63;6243632;22;45292;-72
2023/04/23 16:06:38;;;;;;;;;0.00;0.00;;;;;-145.45;100.00;57426.63;6244995;22;45271;-72
2023/04/23 16:09:06;;;;;;;;;3.00;1.00;;;;;-145.45;100.00;57426.63;6246105;22;45359;-72
2023/04/23 16:11:34;;;;;;;;;4.00;1.00;;;;;-145.45;100.00;57426.63;6259134;22;45265;-73
2023/04/23 16:13:59;;;;;;;;;1.67;1.00;;;;;-145.45;100.00;57426.63;6249347;22;45181;-74
2023/04/23 16:16:24;;;;;;;;;4.00;1.00;;;;;-145.45;100.00;57426.63;6249496;22;45225;-73
2023/04/23 16:18:50;;;;;;;;;1.00;1.00;;;;;-145.45;100.00;57426.63;6276793;22;45159;-74
2023/04/23 16:21:15;;;;;;;;;0.67;0.00;;;;;-145.45;100.00;57426.63;6247178;22;48088;-74
2023/04/23 16:23:41;;;;;;;;;2.33;1.00;;;;;-145.45;100.00;57426.63;6248907;22;45306;-73
2023/04/23 16:26:07;;;;;;;;;2.00;0.67;;;;;-145.45;100.00;57426.63;6278388;22;44883;-73
2023/04/23 16:28:33;;;;;;;;;1.00;1.00;;;;;-145.45;100.00;57426.63;6280673;22;45255;-73
2023/04/23 16:30:59;;;;;;;;;2.00;1.00;;;;;-145.45;100.00;57426.63;6279823;22;46198;-75
2023/04/23 16:33:26;;;;;;;;;2.00;2.00;;;;;-145.45;100.00;57426.63;6252379;22;45315;-75
2023/04/23 16:35:52;;;;;;;;;1.00;1.00;;;;;-145.45;100.00;57426.63;6279553;22;45288;-75
2023/04/23 16:38:18;;;;;;;;;2.00;0.67;;;;;-145.45;100.00;57426.63;6279801;22;45169;-75
2023/04/23 16:40:45;;;;;;;;;1.00;1.00;;;;;-145.45;100.00;57426.63;6279016;22;46219;-74
2023/04/23 16:43:12;;;;;;;;;1.00;1.00;;;;;-145.45;100.00;57426.63;6249654;22;45343;-74
2023/04/23 16:45:37;;;;;;;;;1.00;1.00;;;;;-145.45;100.00;57426.63;6250589;22;45597;-76
2023/04/23 16:48:03;;;;;;;;;1.00;1.00;;;;;-145.45;100.00;57426.63;6279071;22;45442;-76
2023/04/23 16:50:28;;;;;;;;;3.00;2.00;;;;;-145.45;100.00;57426.63;6279599;22;45511;-74
2023/04/23 16:52:53;;;;;;;;;2.00;2.00;;;;;-145.45;100.00;57426.63;6279670;22;45349;-75
2023/04/23 16:55:19;;;;;;;;;3.00;2.33;;;;;-145.45;100.00;57426.63;6279495;22;45284;-75
2023/04/23 16:57:44;;;;;;;;;1.00;1.00;;;;;-145.45;100.00;57426.63;6281258;22;45442;-76
2023/04/23 17:00:11;;;;;;;;;2.00;2.00;;;;;-145.45;100.00;57426.63;6279534;22;45634;-76
2023/04/23 17:02:37;;;;;;;;;3.00;3.00;;;;;-145.45;100.00;57426.63;6281407;22;45299;-76
2023/04/23 17:05:02;;;;;;;;;2.67;1.00;;;;;-145.45;100.00;57426.63;6250938;22;45353;-75
2023/04/23 17:07:28;;;;;;;;;0.00;0.00;;;;;-145.45;100.00;57426.63;6253735;22;45260;-76
2023/04/23 17:09:53;;;;;;;;;0.00;0.00;;;;;-145.45;100.00;57426.63;6281931;22;45273;-75
2023/04/23 17:12:18;;;;;;;;;1.00;1.00;;;;;-145.45;100.00;57426.63;6281260;22;45216;-76
2023/04/23 17:14:44;;;;;;;;;1.00;1.00;;;;;-145.45;100.00;57426.63;6252079;22;45252;-76
2023/04/23 17:17:09;;;;;;;;;0.67;0.67;;;;;-145.45;100.00;57426.63;6279986;22;45191;-75
2023/04/23 17:19:35;;;;;;;;;2.00;0.67;;;;;-145.45;100.00;57426.63;6279994;22;45117;-76
2023/04/23 17:22:00;;;;;;;;;2.67;1.00;;;;;-145.45;100.00;57426.63;6279416;22;45178;-76
2023/04/23 17:24:26;;;;;;;;;1.00;1.00;;;;;-145.45;100.00;57426.63;6280087;22;45224;-76
2023/04/23 17:26:51;;;;;;;;;2.33;1.00;;;;;-145.45;100.00;57426.63;6279454;22;45419;-76
2023/04/23 17:29:16;;;;;;;;;1.00;1.00;;;;;-145.45;100.00;57426.63;6279809;22;45386;-76
2023/04/23 17:31:42;;;;;;;;;1.00;1.00;;;;;-145.45;100.00;57426.63;6279715;22;45237;-76
2023/04/23 17:34:07;;;;;;;;;2.00;0.67;;;;;-145.45;100.00;57426.63;6279812;22;45160;-75
2023/04/23 17:36:33;;;;;;;;;0.00;0.00;;;;;-145.45;100.00;57426.63;6278809;22;45425;-76
2023/04/23 17:38:58;;;;;;;;;1.00;1.00;;;;;-145.45;100.00;57426.63;6277229;22;51926;-76
2023/04/23 17:41:24;;;;;;;;;4.00;1.00;;;;;-145.45;100.00;57426.63;6249013;22;45278;-76
2023/04/23 17:43:49;;;;;;;;;2.00;2.00;;;;;-145.45;100.00;57426.63;6278277;22;45385;-75
2023/04/23 17:46:15;;;;;;;;;2.00;2.00;;;;;-145.45;100.00;57426.63;6277632;22;45188;-76
2023/04/23 17:48:40;;;;;;;;;1.00;1.00;;;;;-145.45;100.00;57426.63;6277611;22;45154;-75
2023/04/23 17:51:05;;;;;;;;;2.00;2.00;;;;;-145.45;100.00;57426.63;6277747;22;45283;-76
2023/04/23 17:53:31;;;;;;;;;2.00;2.00;;;;;-145.45;100.00;57426.63;6278138;22;45292;-75
2023/04/23 17:56:01;;;;;;;;;3.00;3.00;;;;;-145.45;100.00;57426.63;6249262;22;45766;-75
2023/04/23 17:58:27;;;;;;;;;1.33;1.33;;;;;-145.45;100.00;57426.63;6249634;22;46666;-74
2023/04/23 18:00:53;;;;;;;;;2.00;2.00;;;;;-145.45;100.00;57426.63;6248626;22;45489;-75
2023/04/23 18:03:20;;;;;;;;;3.00;1.33;;;;;-145.45;100.00;57426.63;6250157;22;45264;-75
2023/04/23 18:05:46;;;;;;;;;1.00;1.00;;;;;-145.45;100.00;57426.63;6278214;22;45230;-75
2023/04/23 18:08:11;;;;;;;;;1.33;1.00;;;;;-145.45;100.00;57426.63;6249862;22;46889;-75
2023/04/23 18:10:37;;;;;;;;;4.67;4.00;;;;;-145.45;100.00;57426.63;6277169;22;45414;-75
2023/04/23 18:13:05;;;;;;;;;1.67;1.67;;;;;-145.45;100.00;57426.63;6250313;22;45250;-76
2023/04/23 18:15:33;;;;;;;;;1.00;1.00;;;;;-145.45;100.00;57426.63;6224631;22;45974;-76
2023/04/23 18:17:59;;;;;;;;;3.67;1.00;;;;;-145.45;100.00;57426.63;6249023;22;46650;-76
2023/04/23 18:20:25;;;;;;;;;3.67;3.00;;;;;-145.45;100.00;57426.63;6277780;22;45356;-76
2023/04/23 18:22:53;;;;;;;;;3.33;2.00;;;;;-145.45;100.00;57426.63;6277881;22;44823;-77
2023/04/23 18:25:18;;;;;;;;;2.00;2.00;;;;;-145.45;100.00;57426.63;6277189;22;45240;-77
2023/04/23 18:27:43;;;;;;;;;3.00;3.00;;;;;-145.45;100.00;57426.63;6249600;22;48060;-78
2023/04/23 18:30:10;;;;;;;;;2.00;2.00;;;;;-145.45;100.00;57426.63;6277500;22;45160;-76
2023/04/23 18:32:41;;;;;;;;;4.00;3.00;;;;;-145.45;100.00;57426.63;6277835;22;45227;-76
2023/04/23 18:35:08;;;;;;;;;3.00;1.00;;;;;-145.45;100.00;57426.63;6249125;22;45257;-76
2023/04/23 18:37:52;;;;;;;;;4.67;3.33;;;;;-145.45;100.00;57426.63;6277239;22;45205;-77
2023/04/23 18:40:18;;;;;;;;;4.00;3.00;;;;;-145.45;100.00;57426.63;6277130;22;45149;-76
2023/04/23 18:42:43;;;;;;;;;4.00;4.00;;;;;-145.45;100.00;57426.63;6249848;22;45292;-76
2023/04/23 18:45:09;;;;;;;;;5.67;5.00;;;;;-145.45;100.00;57426.63;6249494;22;45499;-75
2023/04/23 18:47:48;;;;;;;;;6.25;4.25;;;;;-145.45;100.00;57426.63;6278127;22;45265;-77
2023/04/23 18:50:39;;;;;;;;;5.33;4.67;;;;;-145.45;100.00;57426.63;6277347;22;45282;-77
2023/04/23 18:53:04;;;;;;;;;1.00;0.67;;;;;-145.45;100.00;57426.63;6277728;22;45216;-76
2023/04/23 18:55:30;;;;;;;;;5.00;5.00;;;;;-145.45;100.00;57426.63;6248893;22;45194;-76
2023/04/23 18:57:56;;;;;;;;;6.33;4.00;;;;;-145.45;100.00;57426.63;6277292;22;45366;-76
2023/04/23 19:00:21;;;;;;;;;8.25;6.00;;;;;-145.45;100.00;57426.63;6277266;22;45209;-76
2023/04/23 19:02:47;;;;;;;;;6.75;4.00;;;;;-145.45;100.00;57426.63;6277931;22;45152;-75
2023/04/23 19:05:12;;;;;;;;;7.50;6.25;;;;;-145.45;100.00;57426.63;6248137;22;46986;-74
2023/04/23 19:07:40;;;;;;;;;3.50;3.25;;;;;-145.45;100.00;57426.63;6277729;22;45403;-75
2023/04/23 19:10:06;;;;;;;;;6.50;6.50;;;;;-145.45;100.00;57426.63;6276747;22;45229;-75
2023/04/23 19:12:31;;;;;;;;;5.25;5.25;;;;;-145.45;100.00;57426.63;6249324;22;45297;-74
2023/04/23 19:14:56;;;;;;;;;7.00;6.00;;;;;-145.45;100.00;57426.63;6277863;22;45230;-75
2023/04/23 19:17:22;;;;;;;;;7.00;7.00;;;;;-145.45;100.00;57426.63;6277465;22;56768;-74
2023/04/23 19:19:47;;;;;;;;;5.75;5.25;;;;;-145.45;100.00;57426.63;6277350;22;45154;-75
2023/04/23 19:22:12;;;;;;;;;5.75;5.75;;;;;-145.45;100.00;57426.63;6278060;22;45209;-75
2023/04/23 19:24:38;;;;;;;;;9.00;6.00;;;;;-145.45;100.00;57426.63;6278315;22;45141;-73
2023/04/23 19:27:04;;;;;;;;;10.00;10.00;;;;;-145.45;100.00;57426.63;6277648;22;46012;-75
2023/04/23 19:29:29;;;;;;;;;8.00;7.25;;;;;-145.45;100.00;57426.63;6278172;22;45132;-75
2023/04/23 19:31:55;;;;;;;;;7.50;6.00;;;;;-145.45;100.00;57426.63;6249639;22;45869;-74
2023/04/23 19:34:20;;;;;;;;;9.25;8.25;;;;;-145.45;100.00;57426.63;6278615;22;45099;-72
2023/04/23 19:36:46;;;;;;;;;7.00;6.25;;;;;-145.45;100.00;57426.63;6279091;22;45172;-75
2023/04/23 19:39:11;;;;;;;;;8.50;8.50;;;;;-145.45;100.00;57426.63;6279360;22;45170;-75
2023/04/23 19:41:36;;;;;;;;;7.75;7.75;;;;;-145.45;100.00;57426.63;6277581;22;45623;-75
2023/04/23 19:44:02;;;;;;;;;8.00;8.00;;;;;-145.45;100.00;57426.63;6277760;22;45452;-74
2023/04/23 19:46:27;;;;;;;;;8.00;8.00;;;;;-145.45;100.00;57426.63;6276970;22;45328;-74
2023/04/23 19:48:53;;;;;;;;;6.50;6.00;;;;;-145.45;100.00;57426.63;6277161;22;45213;-74
2023/04/23 19:51:23;;;;;;;;;8.25;7.25;;;;;-145.45;100.00;57426.63;6277818;22;45231;-74
2023/04/23 19:53:49;;;;;;;;;9.00;8.00;;;;;-145.45;100.00;57426.63;6277806;22;45145;-75
2023/04/23 19:56:14;;;;;;;;;6.25;6.25;;;;;-145.45;100.00;57426.63;6248706;22;45375;-75
2023/04/23 19:58:40;;;;;;;;;8.50;7.00;;;;;-145.45;100.00;57426.63;6277581;22;45238;-74
2023/04/23 20:01:06;;;;;;;;;9.00;7.25;;;;;-145.45;100.00;57426.63;6276901;22;45193;-74
2023/04/23 20:03:33;;;;;;;;;10.00;8.50;;;;;-145.45;100.00;57426.63;6277521;22;45155;-74
2023/04/23 20:05:58;;;;;;;;;9.00;8.00;;;;;-145.45;100.00;57426.63;6275810;22;45282;-74
2023/04/23 20:08:28;;;;;;;;;9.25;8.00;;;;;-145.45;100.00;57426.63;6276727;22;45253;-75
2023/04/23 20:10:54;;;;;;;;;9.00;8.00;;;;;-145.45;100.00;57426.63;6275775;22;45238;-75
2023/04/23 20:13:20;;;;;;;;;14.00;11.50;;;;;-145.45;100.00;57426.63;6248566;22;46493;-75
2023/04/23 20:15:46;;;;;;;;;14.00;9.00;;;;;-145.45;100.00;57426.63;6248672;22;46987;-75
2023/04/23 20:18:12;;;;;;;;;6.75;5.75;;;;;-145.45;100.00;57426.63;6249199;22;45281;-75
2023/04/23 20:20:39;;;;;;;;;8.75;8.00;;;;;-145.45;100.00;57426.63;6276895;22;45301;-75
2023/04/23 20:23:04;;;;;;;;;10.50;9.75;;;;;-145.45;100.00;57426.63;6276615;22;45225;-76
2023/04/23 20:25:30;;;;;;;;;12.50;12.00;;;;;-145.45;100.00;57426.63;6275930;22;45558;-75
2023/04/23 20:27:56;;;;;;;;;8.00;8.00;;;;;-145.45;100.00;57426.63;6275622;22;44629;-75
2023/04/23 20:30:22;;;;;;;;;9.00;9.00;;;;;-145.45;100.00;57426.63;6276925;22;45243;-74
2023/04/23 20:32:47;;;;;;;;;13.75;11.25;;;;;-145.45;100.00;57426.63;6276894;22;45255;-75
2023/04/23 20:35:12;;;;;;;;;14.25;10.25;;;;;-145.45;100.00;57426.63;6276054;22;45276;-74
2023/04/23 20:37:39;;;;;;;;;8.00;8.00;;;;;-145.45;100.00;57426.63;6276912;22;45225;-74
2023/04/23 20:40:06;;;;;;;;;11.25;8.75;;;;;-145.45;100.00;57426.63;6276371;22;45310;-75
2023/04/23 20:42:33;;;;;;;;;10.50;9.00;;;;;-145.45;100.00;57426.63;6276549;22;45403;-75
2023/04/23 20:44:59;;;;;;;;;9.25;9.00;;;;;-145.45;100.00;57426.63;6275428;22;46164;-74
2023/04/23 20:47:24;;;;;;;;;16.25;10.25;;;;;-145.45;100.00;57426.63;6276596;22;45362;-75
2023/04/23 20:49:50;;;;;;;;;6.25;6.25;;;;;-145.45;100.00;57426.63;6276597;22;45088;-75
2023/04/23 20:52:16;;;;;;;;;9.75;8.25;;;;;-145.45;100.00;57426.63;6276873;22;45221;-75
2023/04/23 20:54:41;;;;;;;;;7.00;7.00;;;;;-145.45;100.00;57426.63;6276293;22;45298;-75
2023/04/23 20:57:06;;;;;;;;;9.25;7.50;;;;;-145.45;100.00;57426.63;6276700;22;45298;-76
2023/04/23 20:59:32;;;;;;;;;7.25;6.50;;;;;-145.45;100.00;57426.63;6249447;22;45310;-75
2023/04/23 21:01:57;;;;;;;;;10.75;8.00;;;;;-145.45;100.00;57426.63;6248471;22;45973;-75
2023/04/23 21:04:22;;;;;;;;;10.75;8.75;;;;;-145.45;100.00;57426.63;6276923;22;45176;-77
2023/04/23 21:06:49;;;;;;;;;11.25;9.50;;;;;-145.45;100.00;57426.63;6249973;22;45230;-76
2023/04/23 21:09:15;;;;;;;;;11.00;11.00;;;;;-145.45;100.00;57426.63;6250540;22;45186;-77
2023/04/23 21:11:41;;;;;;;;;8.50;8.50;;;;;-145.45;100.00;57426.63;6248242;22;46204;-77
2023/04/23 21:14:07;;;;;;;;;11.50;9.25;;;;;-145.45;100.00;57426.63;6278190;22;45124;-75
2023/04/23 21:16:36;;;;;;;;;13.00;10.75;;;;;-145.45;100.00;57426.63;6275680;22;45248;-75
2023/04/23 21:19:03;;;;;;;;;10.50;8.75;;;;;-145.45;100.00;57426.63;6250098;22;45243;-76
2023/04/23 21:21:31;;;;;;;;;14.25;9.25;;;;;-145.45;100.00;57426.63;6277442;22;44796;-76
2023/04/23 21:23:58;;;;;;;;;13.50;10.50;;;;;-145.45;100.00;57426.63;6277532;22;45394;-76
2023/04/23 21:26:25;;;;;;;;;10.50;10.50;;;;;-145.45;100.00;57426.63;6276601;22;45251;-77
2023/04/23 21:28:51;;;;;;;;;11.00;11.00;;;;;-145.45;100.00;57426.63;6250396;22;45339;-76
2023/04/23 21:31:27;;;;;;;;;10.50;10.50;;;;;-145.45;100.00;57426.63;6249498;22;45476;-76
2023/04/23 21:33:52;;;;;;;;;10.00;10.00;;;;;-145.45;100.00;57426.63;6250041;22;46255;-76
2023/04/23 21:36:18;;;;;;;;;8.75;6.00;;;;;-145.45;100.00;57426.63;6277467;22;45205;-76
2023/04/23 21:38:43;;;;;;;;;9.00;7.50;;;;;-145.45;100.00;57426.63;6278285;22;45572;-75
2023/04/23 21:41:08;;;;;;;;;7.75;7.75;;;;;-145.45;100.00;57426.63;6275984;22;45221;-75
2023/04/23 21:43:34;;;;;;;;;8.00;8.00;;;;;-145.45;100.00;57426.63;6277227;22;54787;-76
2023/04/23 21:46:00;;;;;;;;;8.25;8.00;;;;;-145.45;100.00;57426.63;6277741;22;45213;-76
2023/04/23 21:48:25;;;;;;;;;10.50;8.75;;;;;-145.45;100.00;57426.63;6253667;22;45407;-76
2023/04/23 21:50:52;;;;;;;;;9.50;7.00;;;;;-145.45;100.00;57426.63;6253276;22;45936;-75
2023/04/23 21:53:18;;;;;;;;;9.75;9.75;;;;;-145.45;100.00;57426.63;6280847;22;46589;-76
2023/04/23 21:55:43;;;;;;;;;9.00;9.00;;;;;-145.45;100.00;57426.63;6280974;22;45245;-75
2023/04/23 21:58:08;;;;;;;;;11.75;7.00;;;;;-145.45;100.00;57426.63;6282097;22;45229;-75
2023/04/23 22:00:34;;;;;;;;;6.00;6.00;;;;;-145.45;100.00;57426.63;6281248;22;47398;-76
